createdAt,value
2022-10-04T00:04:33.547Z,2.4
2022-10-04T00:09:33.543Z,2.5
2022-10-04T00:14:33.584Z,2.5
2022-10-04T00:19:33.544Z,2.8
2022-10-04T00:24:33.542Z,2.8
2022-10-04T00:29:33.544Z,2.6
2022-10-04T00:34:33.546Z,2.6
2022-10-04T00:39:33.549Z,2.1
2022-10-04T00:44:33.545Z,2.5
2022-10-04T00:49:33.566Z,2.5
2022-10-04T00:54:33.591Z,2.5
2022-10-04T00:59:33.556Z,2.7
2022-10-04T01:04:33.589Z,2.3
2022-10-04T01:09:33.592Z,2.5
2022-10-04T01:14:33.586Z,2.3
2022-10-04T01:19:33.564Z,2.3
2022-10-04T01:24:33.588Z,2.3
2022-10-04T01:29:33.554Z,2.8
2022-10-04T01:34:33.595Z,2.4
2022-10-04T01:39:33.593Z,2.5
2022-10-04T01:44:33.561Z,2.6
2022-10-04T01:49:33.557Z,2.9
2022-10-04T01:54:33.559Z,2.9
2022-10-04T01:59:33.666Z,2.8
2022-10-04T02:04:33.679Z,2.8
2022-10-04T02:09:33.573Z,3.2
2022-10-04T02:14:33.574Z,3
2022-10-04T02:19:33.612Z,2.7
2022-10-04T02:24:33.581Z,2.7
2022-10-04T02:29:33.612Z,3.3
2022-10-04T02:34:33.577Z,3.2
2022-10-04T02:39:33.575Z,3.2
2022-10-04T02:44:33.612Z,2.9
2022-10-04T02:49:33.578Z,2.8
2022-10-04T02:54:33.613Z,2.8
2022-10-04T02:59:35.395Z,3.5
2022-10-04T03:04:33.580Z,3.2
2022-10-04T03:09:33.620Z,4.2
2022-10-04T03:14:33.587Z,3.3
2022-10-04T03:19:33.620Z,3.2
2022-10-04T03:24:33.687Z,3.2
2022-10-04T03:29:33.687Z,3.4
2022-10-04T03:34:33.586Z,3.4
2022-10-04T03:39:33.625Z,3
2022-10-04T03:44:33.592Z,3.9
2022-10-04T03:49:33.588Z,3.1
2022-10-04T03:54:33.629Z,3.1
2022-10-04T03:59:33.587Z,3.2
2022-10-04T04:04:33.625Z,4
2022-10-04T04:09:33.619Z,3.5
2022-10-04T04:14:33.630Z,3.6
2022-10-04T04:19:33.594Z,3.4
2022-10-04T04:24:33.634Z,3.4
2022-10-04T04:29:33.591Z,3.9
2022-10-04T04:34:33.630Z,3.5
2022-10-04T04:39:33.638Z,3.9
2022-10-04T04:44:33.631Z,3.8
2022-10-04T04:49:33.636Z,3.4
2022-10-04T04:54:33.641Z,3.4
2022-10-04T04:59:33.598Z,3.4
2022-10-04T05:04:33.690Z,3.3
2022-10-04T05:09:33.610Z,3.7
2022-10-04T05:14:33.658Z,3.4
2022-10-04T05:19:33.619Z,3.4
2022-10-04T05:24:33.619Z,3.4
2022-10-04T05:29:33.654Z,3.5
2022-10-04T05:34:33.620Z,3.1
2022-10-04T05:39:33.618Z,4.5
2022-10-04T05:44:33.620Z,4.2
2022-10-04T05:49:33.620Z,4.9
2022-10-04T05:54:33.618Z,4.9
2022-10-04T05:59:33.618Z,5.6
2022-10-04T06:04:33.621Z,5.3
2022-10-04T06:09:33.628Z,5.2
2022-10-04T06:14:33.613Z,4.5
2022-10-04T06:19:33.587Z,4.5
2022-10-04T06:24:33.627Z,4.5
2022-10-04T06:29:33.720Z,5.5
2022-10-04T06:34:33.626Z,5.8
2022-10-04T06:39:33.625Z,6
2022-10-04T06:44:33.625Z,6.1
2022-10-04T06:49:33.626Z,6.1
2022-10-04T06:54:33.627Z,6.9
2022-10-04T06:59:33.658Z,5.5
2022-10-04T07:04:50.215Z,5.3
2022-10-04T07:09:33.662Z,4.9
2022-10-04T07:14:33.659Z,4.3
2022-10-04T07:19:33.637Z,4.3
2022-10-04T07:24:33.626Z,3.8
2022-10-04T07:29:33.668Z,4.3
2022-10-04T07:34:33.632Z,4.1
2022-10-04T07:39:33.664Z,4.4
2022-10-04T07:44:33.666Z,4.9
2022-10-04T07:49:33.668Z,4.9
2022-10-04T07:54:33.688Z,5.1
2022-10-04T07:59:33.685Z,5.3
2022-10-04T08:04:33.609Z,4.8
2022-10-04T08:09:33.620Z,2.8
2022-10-04T08:14:33.609Z,2.1
2022-10-04T08:19:33.600Z,2.1
2022-10-04T08:24:33.620Z,2
2022-10-04T08:29:33.614Z,2.2
2022-10-04T08:34:33.627Z,2.1
2022-10-04T08:39:35.407Z,2.4
2022-10-04T08:44:33.626Z,1.7
2022-10-04T08:49:33.627Z,1.7
2022-10-04T08:54:33.633Z,1.2
2022-10-04T08:59:33.640Z,1
2022-10-04T09:04:33.628Z,0.9
2022-10-04T09:09:33.678Z,0.9
2022-10-04T09:14:33.637Z,1
2022-10-04T09:19:33.641Z,1
2022-10-04T09:24:33.633Z,1.2
2022-10-04T09:29:33.639Z,1.1
2022-10-04T09:34:37.259Z,1.1
2022-10-04T09:39:33.645Z,1.2
2022-10-04T09:44:33.644Z,1
2022-10-04T09:49:33.638Z,1
2022-10-04T09:54:33.649Z,1.1
2022-10-04T09:59:33.643Z,1.1
2022-10-04T10:04:33.642Z,1.7
2022-10-04T10:09:33.649Z,1.2
2022-10-04T10:14:33.633Z,1.2
2022-10-04T10:19:33.657Z,1.2
2022-10-04T10:24:33.642Z,1.3
2022-10-04T10:29:33.636Z,1.2
2022-10-04T10:34:33.645Z,1.1
2022-10-04T10:39:33.641Z,1.3
2022-10-04T10:44:33.662Z,1.1
2022-10-04T10:49:33.657Z,1.1
2022-10-04T10:54:33.679Z,1.1
2022-10-04T10:59:33.630Z,1.4
2022-10-04T11:04:33.651Z,1.4
2022-10-04T11:09:33.638Z,1.4
2022-10-04T11:14:33.655Z,1.4
2022-10-04T11:19:33.660Z,1.4
2022-10-04T11:24:33.647Z,1.3
2022-10-04T11:29:33.653Z,0.9
2022-10-04T11:34:33.653Z,1
2022-10-04T11:39:33.634Z,0.8
2022-10-04T11:44:33.660Z,0.8
2022-10-04T11:49:33.664Z,0.8
2022-10-04T11:54:33.708Z,0.8
2022-10-04T11:59:33.679Z,0.8
2022-10-04T12:04:33.738Z,0.9
2022-10-04T12:09:33.650Z,0.8
2022-10-04T12:14:33.656Z,1
2022-10-04T12:19:33.649Z,1
2022-10-04T12:24:33.644Z,1.1
2022-10-04T12:29:33.667Z,0.9
2022-10-04T12:34:33.647Z,1.3
2022-10-04T12:39:33.667Z,1.1
2022-10-04T12:44:33.668Z,1.1
2022-10-04T12:49:33.664Z,1.1
2022-10-04T12:54:33.722Z,1.3
2022-10-04T12:59:33.653Z,2
2022-10-04T13:04:33.669Z,1.9
2022-10-04T13:09:33.675Z,2
2022-10-04T13:14:33.675Z,2.1
2022-10-04T13:19:33.659Z,2.1
2022-10-04T13:24:33.700Z,1.8
2022-10-04T13:29:33.770Z,1.6
2022-10-04T13:34:33.668Z,1.7
2022-10-04T13:39:33.703Z,1.5
2022-10-04T13:44:33.660Z,1.5
2022-10-04T13:49:33.686Z,1.5
2022-10-04T13:54:33.672Z,1.2
2022-10-04T13:59:34.841Z,1.4
2022-10-04T14:04:33.667Z,1.4
2022-10-04T14:09:33.671Z,1.7
2022-10-04T14:14:33.687Z,1.5
2022-10-04T14:19:33.672Z,1.5
2022-10-04T14:24:33.664Z,0.9
2022-10-04T14:29:33.680Z,1.3
2022-10-04T14:34:33.664Z,1.5
2022-10-04T14:39:33.668Z,1.6
2022-10-04T14:44:33.668Z,1.3
2022-10-04T14:49:33.662Z,1.3
2022-10-04T14:54:33.667Z,1.9
2022-10-04T14:59:33.657Z,1.9
2022-10-04T15:04:33.689Z,1.4
2022-10-04T15:09:33.653Z,2
2022-10-04T15:14:33.672Z,1.5
2022-10-04T15:19:33.666Z,1.5
2022-10-04T15:24:33.662Z,1.8
2022-10-04T15:29:33.676Z,1.9
2022-10-04T15:34:33.677Z,2.3
2022-10-04T15:39:33.670Z,2.2
2022-10-04T15:44:33.652Z,1.9
2022-10-04T15:49:33.663Z,1.9
2022-10-04T15:54:33.662Z,1.7
2022-10-04T15:59:33.669Z,2.2
2022-10-04T16:04:33.684Z,1.3
2022-10-04T16:09:33.677Z,1.6
2022-10-04T16:14:33.659Z,1
2022-10-04T16:19:33.671Z,1
2022-10-04T16:24:33.747Z,1.6
2022-10-04T16:29:33.678Z,1.3
2022-10-04T16:34:33.669Z,1.1
2022-10-04T16:39:33.669Z,1.2
2022-10-04T16:44:33.706Z,1.1
2022-10-04T16:49:35.687Z,1.1
2022-10-04T16:54:33.695Z,1.1
2022-10-04T16:59:33.722Z,1.1
2022-10-04T17:04:33.693Z,1.2
2022-10-04T17:09:33.690Z,1.4
2022-10-04T17:14:33.706Z,1.2
2022-10-04T17:19:33.728Z,1.2
2022-10-04T17:24:33.656Z,1.5
2022-10-04T17:29:33.684Z,1.5
2022-10-04T17:34:33.732Z,1.4
2022-10-04T17:39:33.718Z,1.5
2022-10-04T17:44:33.677Z,1.3
2022-10-04T17:49:33.680Z,1.3
2022-10-04T17:54:33.690Z,1.4
2022-10-04T17:59:33.745Z,1.1
2022-10-04T18:04:33.723Z,1.5
2022-10-04T18:09:33.725Z,1.5
2022-10-04T18:14:33.779Z,1.8
2022-10-04T18:19:33.776Z,1.8
2022-10-04T18:24:33.742Z,1.9
2022-10-04T18:29:33.809Z,1.9
2022-10-04T18:34:33.770Z,1.4
2022-10-04T18:39:33.748Z,1.4
2022-10-04T18:44:33.824Z,1.6
2022-10-04T18:49:33.701Z,1.6
2022-10-04T18:54:34.773Z,1.2
2022-10-04T18:59:33.746Z,1.4
2022-10-04T19:04:33.698Z,1
2022-10-04T19:09:33.691Z,1
2022-10-04T19:14:33.699Z,1.1
2022-10-04T19:19:33.686Z,1.1
2022-10-04T19:24:33.698Z,1.1
2022-10-04T19:29:33.700Z,1.3
2022-10-04T19:34:33.699Z,1.4
2022-10-04T19:39:33.710Z,1.1
2022-10-04T19:44:33.703Z,1.1
2022-10-04T19:49:33.699Z,1.1
2022-10-04T19:54:33.687Z,1.6
2022-10-04T19:59:33.700Z,1.3
2022-10-04T20:04:33.824Z,1.2
2022-10-04T20:09:33.815Z,1.4
2022-10-04T20:14:33.870Z,0.9
2022-10-04T20:19:33.763Z,0.9
2022-10-04T20:24:33.761Z,1.2
2022-10-04T20:29:33.765Z,1.3
2022-10-04T20:34:33.769Z,1
2022-10-04T20:39:33.781Z,1.2
2022-10-04T20:44:33.770Z,1
2022-10-04T20:49:33.770Z,1
2022-10-04T20:54:33.769Z,1.2
2022-10-04T20:59:33.807Z,1.3
2022-10-04T21:04:33.785Z,1.6
2022-10-04T21:09:33.780Z,1.4
2022-10-04T21:14:33.798Z,1.3
2022-10-04T21:19:33.884Z,1.3
2022-10-04T21:24:33.781Z,1.1
2022-10-04T21:29:33.774Z,1.5
2022-10-04T21:34:52.483Z,1.7
2022-10-04T21:39:33.775Z,1.7
2022-10-04T21:44:33.792Z,1.3
2022-10-04T21:49:33.779Z,1.3
2022-10-04T21:54:33.785Z,1.8
2022-10-04T21:59:33.779Z,1.9
2022-10-04T22:04:33.786Z,1.6
2022-10-04T22:09:33.787Z,1.8
2022-10-04T22:14:33.786Z,1.6
2022-10-04T22:19:33.752Z,1.6
2022-10-04T22:24:33.788Z,1.8
2022-10-04T22:29:33.793Z,1.4
2022-10-04T22:34:33.787Z,1.2
2022-10-04T22:39:33.786Z,1.2
2022-10-04T22:44:33.822Z,1.3
2022-10-04T22:49:33.788Z,1.3
2022-10-04T22:54:33.796Z,1.3
2022-10-04T22:59:33.792Z,1.5
2022-10-04T23:04:33.877Z,1.4
2022-10-04T23:09:33.787Z,1.2
2022-10-04T23:14:33.793Z,1.5
2022-10-04T23:19:33.826Z,1.5
2022-10-04T23:24:33.792Z,1.4
2022-10-04T23:29:33.785Z,1.6
2022-10-04T23:34:33.787Z,1.2
2022-10-04T23:39:33.795Z,1.3
2022-10-04T23:44:33.791Z,1.8
2022-10-04T23:49:33.794Z,1.8
2022-10-04T23:54:33.792Z,1.2
2022-10-04T23:59:33.792Z,1.5
